createdAt,value
2022-12-05T00:00:09.004Z,0.44
2022-12-05T00:02:56.721Z,0.45
2022-12-05T00:05:28.910Z,0.47
2022-12-05T00:07:57.015Z,0.50
2022-12-05T00:10:24.825Z,0.52
2022-12-05T00:12:52.640Z,0.55
2022-12-05T00:15:24.658Z,0.57
2022-12-05T00:17:52.457Z,0.60
2022-12-05T00:20:22.413Z,0.63
2022-12-05T00:22:50.410Z,0.64
2022-12-05T00:25:18.504Z,0.64
2022-12-05T00:27:46.503Z,0.63
2022-12-05T00:30:14.350Z,0.60
2022-12-05T00:32:42.352Z,0.60
2022-12-05T00:35:10.344Z,0.60
2022-12-05T00:37:38.345Z,0.56
2022-12-05T00:40:11.093Z,0.54
2022-12-05T00:42:39.370Z,0.54
2022-12-05T00:45:11.441Z,0.55
2022-12-05T00:47:39.508Z,0.57
2022-12-05T00:50:10.511Z,0.60
2022-12-05T00:52:38.510Z,0.62
2022-12-05T00:55:10.399Z,0.63
2022-12-05T00:57:38.221Z,0.65
2022-12-05T01:00:10.724Z,0.67
2022-12-05T01:02:38.774Z,0.67
2022-12-05T01:05:10.539Z,0.64
2022-12-05T01:07:38.595Z,0.65
2022-12-05T01:10:10.378Z,0.66
2022-12-05T01:12:38.182Z,0.67
2022-12-05T01:15:10.264Z,0.69
2022-12-05T01:17:38.504Z,0.70
2022-12-05T01:20:09.539Z,0.68
2022-12-05T01:22:40.467Z,0.67
2022-12-05T01:25:10.123Z,0.69
2022-12-05T01:27:37.931Z,0.69
2022-12-05T01:30:09.999Z,0.65
2022-12-05T01:32:37.995Z,0.64
2022-12-05T01:35:11.257Z,0.65
2022-12-05T01:37:39.272Z,0.68
2022-12-05T01:40:11.291Z,0.70
2022-12-05T01:42:43.559Z,0.70
2022-12-05T01:45:35.500Z,0.71
2022-12-05T01:48:12.948Z,0.70
2022-12-05T01:50:45.476Z,0.70
2022-12-05T01:53:18.329Z,0.71
2022-12-05T01:55:53.078Z,0.73
2022-12-05T01:58:35.062Z,0.74
2022-12-05T02:01:06.999Z,0.76
2022-12-05T02:03:40.830Z,0.76
2022-12-05T02:06:13.302Z,0.77
2022-12-05T02:08:46.934Z,0.75
2022-12-05T02:11:14.804Z,0.77
2022-12-05T02:14:04.728Z,0.76
2022-12-05T02:16:51.637Z,0.78
2022-12-05T02:19:56.120Z,0.78
2022-12-05T02:22:59.585Z,0.80
2022-12-05T02:26:04.834Z,0.80
2022-12-05T02:28:42.357Z,0.80
2022-12-05T02:31:19.427Z,0.82
2022-12-05T02:34:18.611Z,0.83
2022-12-05T02:36:52.288Z,0.83
2022-12-05T02:39:29.109Z,0.84
2022-12-05T02:42:36.011Z,0.83
2022-12-05T02:45:13.587Z,0.83
2022-12-05T02:47:49.995Z,0.85
2022-12-05T02:50:32.376Z,0.88
2022-12-05T02:53:07.153Z,0.88
2022-12-05T02:55:41.360Z,0.88
2022-12-05T02:58:28.027Z,0.89
2022-12-05T03:01:01.223Z,0.90
2022-12-05T03:03:33.852Z,0.92
2022-12-05T03:06:10.700Z,0.95
2022-12-05T03:08:57.846Z,0.96
2022-12-05T03:11:34.642Z,0.96
2022-12-05T03:14:10.907Z,0.96
2022-12-05T03:16:47.046Z,0.97
2022-12-05T03:19:30.449Z,0.98
2022-12-05T03:22:02.516Z,0.96
2022-12-05T03:24:37.009Z,0.96
2022-12-05T03:27:27.935Z,0.97
2022-12-05T03:30:14.380Z,0.97
2022-12-05T03:32:49.664Z,0.97
2022-12-05T03:35:27.560Z,0.98
2022-12-05T03:38:04.239Z,0.98
2022-12-05T03:40:51.737Z,0.99
2022-12-05T03:43:39.280Z,1.01
2022-12-05T03:46:32.723Z,1.02
2022-12-05T03:49:22.175Z,1.03
2022-12-05T03:52:06.471Z,1.02
2022-12-05T03:54:59.687Z,1.02
2022-12-05T03:57:36.674Z,1.03
2022-12-05T04:00:09.995Z,1.05
2022-12-05T04:03:00.177Z,1.05
2022-12-05T04:05:45.836Z,1.02
2022-12-05T04:08:30.499Z,1.00
2022-12-05T04:11:02.873Z,1.00
2022-12-05T04:13:40.673Z,1.01
2022-12-05T04:16:37.528Z,1.00
2022-12-05T04:19:51.130Z,1.00
2022-12-05T04:22:25.110Z,1.02
2022-12-05T04:25:18.484Z,1.04
2022-12-05T04:28:21.012Z,1.06
2022-12-05T04:31:06.650Z,1.07
2022-12-05T04:34:01.650Z,1.07
2022-12-05T04:36:43.554Z,1.07
2022-12-05T04:39:30.185Z,1.05
2022-12-05T04:42:07.599Z,1.03
2022-12-05T04:44:43.978Z,1.03
2022-12-05T04:47:18.868Z,1.02
2022-12-05T04:49:53.468Z,1.02
2022-12-05T04:52:28.504Z,1.03
2022-12-05T04:55:31.856Z,1.04
2022-12-05T04:58:18.758Z,1.05
2022-12-05T05:01:14.403Z,1.04
2022-12-05T05:04:02.378Z,1.03
2022-12-05T05:06:34.812Z,1.02
2022-12-05T05:09:02.525Z,1.02
2022-12-05T05:11:36.444Z,1.02
2022-12-05T05:14:06.711Z,1.01
2022-12-05T05:16:42.366Z,1.01
2022-12-05T05:19:14.238Z,1.01
2022-12-05T05:21:44.471Z,1.01
2022-12-05T05:24:12.631Z,1.00
2022-12-05T05:26:45.816Z,0.99
2022-12-05T05:29:18.182Z,1.00
2022-12-05T05:31:50.313Z,1.00
2022-12-05T05:34:18.199Z,1.01
2022-12-05T05:36:45.942Z,1.01
2022-12-05T05:39:15.509Z,1.03
2022-12-05T05:41:48.075Z,1.03
2022-12-05T05:44:15.817Z,1.06
2022-12-05T05:46:43.714Z,1.06
2022-12-05T05:49:11.455Z,1.08
2022-12-05T05:51:39.257Z,1.09
2022-12-05T05:54:07.248Z,1.10
2022-12-05T05:56:35.116Z,1.11
2022-12-05T05:59:10.826Z,1.14
2022-12-05T06:01:39.394Z,1.15
2022-12-05T06:04:11.333Z,1.17
2022-12-05T06:06:44.827Z,1.16
2022-12-05T06:09:12.788Z,1.17
2022-12-05T06:11:40.782Z,1.19
2022-12-05T06:14:13.712Z,1.21
2022-12-05T06:16:41.602Z,1.21
2022-12-05T06:19:09.372Z,1.22
2022-12-05T06:21:37.344Z,1.24
2022-12-05T06:24:07.964Z,1.27
2022-12-05T06:26:35.827Z,1.27
2022-12-05T06:29:03.600Z,1.28
2022-12-05T06:31:38.452Z,1.29
2022-12-05T06:34:06.248Z,1.31
2022-12-05T06:36:33.994Z,1.33
2022-12-05T06:39:01.903Z,1.33
2022-12-05T06:41:29.954Z,1.31
2022-12-05T06:44:05.470Z,1.33
2022-12-05T06:46:33.298Z,1.37
2022-12-05T06:49:05.737Z,1.39
2022-12-05T06:51:33.466Z,1.39
2022-12-05T06:54:01.196Z,1.40
2022-12-05T06:56:33.891Z,1.40
2022-12-05T06:59:01.638Z,1.40
2022-12-05T07:01:38.933Z,1.40
2022-12-05T07:04:24.422Z,1.43
2022-12-05T07:06:58.612Z,1.45
2022-12-05T07:09:54.148Z,1.47
2022-12-05T07:12:21.992Z,1.51
2022-12-05T07:14:50.358Z,1.54
2022-12-05T07:17:22.894Z,1.58
2022-12-05T07:19:55.933Z,1.62
2022-12-05T07:22:28.711Z,1.67
2022-12-05T07:24:56.454Z,1.71
2022-12-05T07:27:27.551Z,1.75
2022-12-05T07:30:00.344Z,1.80
2022-12-05T07:32:37.895Z,1.84
2022-12-05T07:35:10.237Z,1.88
2022-12-05T07:37:38.045Z,1.92
2022-12-05T07:40:11.310Z,1.95
2022-12-05T07:42:39.109Z,1.99
2022-12-05T07:45:11.547Z,2.02
2022-12-05T07:47:39.393Z,2.06
2022-12-05T07:50:10.391Z,2.11
2022-12-05T07:52:38.240Z,2.15
2022-12-05T07:55:09.180Z,2.19
2022-12-05T07:57:37.160Z,2.24
2022-12-05T08:00:08.046Z,2.28
2022-12-05T08:02:40.457Z,2.32
2022-12-05T08:05:10.885Z,2.36
2022-12-05T08:07:38.879Z,2.40
2022-12-05T08:10:11.458Z,2.45
2022-12-05T08:12:44.043Z,2.47
2022-12-05T08:15:12.036Z,2.50
2022-12-05T08:17:42.990Z,2.52
2022-12-05T08:20:15.360Z,2.54
2022-12-05T08:22:43.161Z,2.56
2022-12-05T08:25:13.173Z,2.57
2022-12-05T08:27:42.163Z,2.57
2022-12-05T08:30:10.005Z,2.60
2022-12-05T08:32:37.831Z,2.63
2022-12-05T08:35:05.741Z,2.64
2022-12-05T08:37:33.505Z,2.64
2022-12-05T08:40:03.874Z,2.66
2022-12-05T08:42:32.070Z,2.67
2022-12-05T08:45:00.174Z,2.67
2022-12-05T08:47:32.781Z,2.68
2022-12-05T08:50:08.348Z,2.69
2022-12-05T08:52:36.452Z,2.72
2022-12-05T08:55:06.881Z,2.73
2022-12-05T08:57:34.774Z,2.75
2022-12-05T09:00:08.390Z,2.76
2022-12-05T09:02:36.199Z,2.79
2022-12-05T09:05:25.857Z,2.79
2022-12-05T09:07:57.016Z,2.82
2022-12-05T09:10:30.708Z,2.86
2022-12-05T09:12:58.796Z,2.92
2022-12-05T09:15:26.904Z,2.96
2022-12-05T09:17:55.207Z,3.03
2022-12-05T09:20:23.103Z,3.06
2022-12-05T09:22:53.219Z,3.08
2022-12-05T09:25:20.997Z,3.11
2022-12-05T09:27:48.845Z,3.16
2022-12-05T09:30:16.618Z,3.19
2022-12-05T09:32:44.372Z,3.23
2022-12-05T09:35:12.250Z,3.29
2022-12-05T09:37:41.606Z,3.36
2022-12-05T09:40:18.958Z,3.43
2022-12-05T09:43:09.216Z,3.52
2022-12-05T09:45:55.906Z,3.62
2022-12-05T09:48:29.562Z,3.70
2022-12-05T09:51:04.191Z,3.80
2022-12-05T09:53:38.960Z,3.90
2022-12-05T09:56:15.150Z,4.07
2022-12-05T09:58:54.332Z,4.21
2022-12-05T10:01:48.443Z,4.30
2022-12-05T10:04:43.478Z,4.35
2022-12-05T10:07:40.219Z,4.45
2022-12-05T10:10:35.845Z,4.53
2022-12-05T10:13:29.225Z,4.60
2022-12-05T10:16:11.216Z,4.73
2022-12-05T10:19:00.081Z,4.84
2022-12-05T10:21:40.990Z,4.92
2022-12-05T10:24:40.911Z,5.01
2022-12-05T10:27:20.495Z,5.18
2022-12-05T10:30:00.003Z,5.38
2022-12-05T10:32:56.544Z,5.61
2022-12-05T10:35:34.711Z,5.83
2022-12-05T10:38:31.375Z,5.93
2022-12-05T10:41:07.681Z,6.08
2022-12-05T10:43:40.728Z,6.23
2022-12-05T10:46:12.742Z,6.38
2022-12-05T10:48:46.060Z,6.38
2022-12-05T10:51:23.590Z,6.33
2022-12-05T10:53:56.867Z,6.35
2022-12-05T10:56:39.970Z,6.38
2022-12-05T10:59:18.378Z,6.50
2022-12-05T11:01:58.004Z,6.68
2022-12-05T11:04:45.095Z,6.82
2022-12-05T11:07:53.909Z,6.83
2022-12-05T11:10:44.196Z,6.82
2022-12-05T11:13:31.059Z,6.85
2022-12-05T11:16:03.959Z,7.03
2022-12-05T11:18:37.578Z,7.20
2022-12-05T11:21:14.695Z,7.40
2022-12-05T11:23:42.555Z,7.56
2022-12-05T11:26:36.503Z,7.73
2022-12-05T11:29:33.922Z,7.91
2022-12-05T11:32:21.479Z,8.07
2022-12-05T11:35:16.158Z,8.24
2022-12-05T11:38:00.917Z,8.35
2022-12-05T11:41:16.143Z,8.40
2022-12-05T11:44:02.535Z,8.44
2022-12-05T11:47:19.499Z,8.49
2022-12-05T11:50:05.763Z,8.49
2022-12-05T11:53:02.549Z,8.49
2022-12-05T11:55:43.613Z,8.45
2022-12-05T11:58:36.677Z,8.40
2022-12-05T12:01:33.962Z,8.27
2022-12-05T12:04:32.236Z,8.15
2022-12-05T12:07:33.880Z,8.07
2022-12-05T12:10:25.198Z,7.98
2022-12-05T12:13:30.883Z,7.94
2022-12-05T12:16:08.515Z,7.88
2022-12-05T12:18:49.078Z,7.86
2022-12-05T12:21:39.633Z,7.81
2022-12-05T12:24:31.723Z,7.78
2022-12-05T12:27:36.948Z,7.74
2022-12-05T12:30:22.621Z,7.75
2022-12-05T12:33:21.510Z,7.71
2022-12-05T12:36:16.677Z,7.68
2022-12-05T12:39:12.148Z,7.66
2022-12-05T12:41:55.296Z,7.68
2022-12-05T12:44:36.907Z,7.69
2022-12-05T12:47:34.027Z,7.66
2022-12-05T12:50:31.557Z,7.63
2022-12-05T12:53:36.029Z,7.63
2022-12-05T12:56:06.830Z,7.59
2022-12-05T12:59:11.227Z,7.57
2022-12-05T13:01:57.346Z,7.56
2022-12-05T13:04:50.371Z,7.52
2022-12-05T13:07:34.816Z,7.49
2022-12-05T13:10:16.513Z,7.47
2022-12-05T13:12:49.845Z,7.41
2022-12-05T13:15:38.911Z,7.39
2022-12-05T13:18:16.153Z,7.36
2022-12-05T13:20:50.925Z,7.37
2022-12-05T13:23:28.552Z,7.34
2022-12-05T13:26:12.828Z,7.32
2022-12-05T13:29:07.363Z,7.27
2022-12-05T13:31:44.863Z,7.25
2022-12-05T13:34:38.728Z,7.24
2022-12-05T13:37:37.210Z,7.20
2022-12-05T13:40:46.090Z,7.15
2022-12-05T13:43:26.870Z,7.07
2022-12-05T13:46:09.525Z,7.05
2022-12-05T13:48:47.131Z,7.03
2022-12-05T13:51:23.835Z,7.00
2022-12-05T13:54:04.900Z,6.97
2022-12-05T13:56:58.128Z,6.94
2022-12-05T14:00:06.800Z,6.90
2022-12-05T14:02:45.549Z,6.86
2022-12-05T14:05:39.833Z,6.84
2022-12-05T14:08:26.506Z,6.83
2022-12-05T14:10:54.243Z,6.83
2022-12-05T14:13:27.244Z,6.83
2022-12-05T14:16:23.858Z,6.84
2022-12-05T14:19:16.734Z,6.83
2022-12-05T14:22:03.039Z,6.83
2022-12-05T14:24:57.872Z,6.81
2022-12-05T14:27:43.291Z,6.79
2022-12-05T14:30:31.963Z,6.78
2022-12-05T14:33:16.183Z,6.77
2022-12-05T14:35:53.460Z,6.75
2022-12-05T14:38:33.232Z,6.75
2022-12-05T14:41:36.904Z,6.73
2022-12-05T14:44:18.613Z,6.71
2022-12-05T14:46:46.606Z,6.71
2022-12-05T14:49:53.656Z,6.70
2022-12-05T14:52:30.214Z,6.68
2022-12-05T14:55:07.367Z,6.68
2022-12-05T14:57:43.107Z,6.68
2022-12-05T15:00:21.351Z,6.66
2022-12-05T15:02:53.145Z,6.67
2022-12-05T15:05:30.013Z,6.68
2022-12-05T15:08:01.717Z,6.72
2022-12-05T15:10:38.731Z,6.74
2022-12-05T15:13:19.089Z,6.75
2022-12-05T15:16:01.872Z,6.70
2022-12-05T15:18:49.426Z,6.60
2022-12-05T15:21:49.204Z,6.50
2022-12-05T15:24:22.662Z,6.42
2022-12-05T15:26:52.742Z,6.35
2022-12-05T15:29:28.312Z,6.30
2022-12-05T15:32:03.432Z,6.21
2022-12-05T15:34:56.295Z,6.15
2022-12-05T15:38:05.196Z,6.06
2022-12-05T15:40:37.800Z,5.93
2022-12-05T15:43:41.339Z,5.81
2022-12-05T15:46:20.939Z,5.70
2022-12-05T15:48:48.868Z,5.61
2022-12-05T15:51:25.600Z,5.55
2022-12-05T15:54:14.152Z,5.49
2022-12-05T15:57:04.344Z,5.43
2022-12-05T15:59:58.960Z,5.36
2022-12-05T16:02:52.104Z,5.30
2022-12-05T16:05:35.451Z,5.29
2022-12-05T16:08:08.755Z,5.28
2022-12-05T16:10:36.795Z,5.25
2022-12-05T16:13:21.967Z,5.21
2022-12-05T16:15:58.733Z,5.20
2022-12-05T16:18:30.699Z,5.18
2022-12-05T16:21:03.173Z,5.15
2022-12-05T16:23:37.761Z,5.14
2022-12-05T16:26:25.710Z,5.14
2022-12-05T16:29:03.015Z,5.14
2022-12-05T16:31:36.500Z,5.15
2022-12-05T16:34:10.290Z,5.14
2022-12-05T16:37:01.675Z,5.11
2022-12-05T16:39:29.704Z,5.03
2022-12-05T16:42:03.070Z,4.97
2022-12-05T16:44:45.896Z,4.94
2022-12-05T16:47:51.736Z,4.91
2022-12-05T16:50:36.927Z,4.87
2022-12-05T16:53:07.806Z,4.81
2022-12-05T16:55:46.713Z,4.77
2022-12-05T16:58:27.146Z,4.74
2022-12-05T17:01:09.267Z,4.69
2022-12-05T17:03:37.183Z,4.65
2022-12-05T17:06:07.261Z,4.62
2022-12-05T17:08:35.204Z,4.59
2022-12-05T17:11:20.918Z,4.57
2022-12-05T17:13:55.130Z,4.56
2022-12-05T17:16:29.380Z,4.54
2022-12-05T17:18:57.183Z,4.53
2022-12-05T17:21:35.374Z,4.50
2022-12-05T17:24:19.378Z,4.45
2022-12-05T17:26:52.091Z,4.40
2022-12-05T17:29:19.842Z,4.34
2022-12-05T17:31:47.935Z,4.33
2022-12-05T17:34:20.085Z,4.31
2022-12-05T17:36:47.939Z,4.24
2022-12-05T17:39:15.702Z,4.15
2022-12-05T17:41:43.652Z,4.13
2022-12-05T17:44:15.759Z,4.11
2022-12-05T17:46:47.069Z,4.07
2022-12-05T17:49:21.553Z,4.03
2022-12-05T17:52:20.201Z,4.00
2022-12-05T17:54:39.210Z,3.98
2022-12-05T17:57:07.234Z,3.97
2022-12-05T17:59:34.993Z,3.95
2022-12-05T18:02:02.763Z,3.93
2022-12-05T18:04:30.550Z,3.93
2022-12-05T18:06:58.288Z,3.92
2022-12-05T18:09:26.101Z,3.89
2022-12-05T18:11:54.010Z,3.88
2022-12-05T18:14:21.832Z,3.87
2022-12-05T18:16:49.791Z,3.86
2022-12-05T18:19:17.633Z,3.85
2022-12-05T18:24:18.124Z,3.81
2022-12-05T18:26:52.272Z,3.79
2022-12-05T18:29:20.051Z,3.78
2022-12-05T18:31:53.078Z,3.76
2022-12-05T18:34:21.007Z,3.73
2022-12-05T18:36:50.304Z,3.70
2022-12-05T18:39:18.317Z,3.66
2022-12-05T18:41:46.297Z,3.60
2022-12-05T18:44:14.065Z,3.54
2022-12-05T18:46:42.972Z,3.50
2022-12-05T18:49:13.489Z,3.45
2022-12-05T18:51:43.234Z,3.40
2022-12-05T18:54:11.013Z,3.40
2022-12-05T18:56:44.850Z,3.39
2022-12-05T18:59:22.483Z,3.35
2022-12-05T19:01:50.654Z,3.31
2022-12-05T19:04:23.154Z,3.30
2022-12-05T19:06:54.856Z,3.28
2022-12-05T19:09:29.009Z,3.27
2022-12-05T19:12:02.079Z,3.29
2022-12-05T19:14:36.837Z,3.31
2022-12-05T19:17:04.655Z,3.31
2022-12-05T19:19:32.570Z,3.31
2022-12-05T19:22:05.697Z,3.29
2022-12-05T19:24:33.617Z,3.30
2022-12-05T19:27:01.431Z,3.32
2022-12-05T19:29:29.219Z,3.33
2022-12-05T19:31:57.056Z,3.33
2022-12-05T19:34:24.957Z,3.34
2022-12-05T19:36:52.724Z,3.35
2022-12-05T19:39:27.025Z,3.37
2022-12-05T19:42:00.763Z,3.39
2022-12-05T19:44:30.197Z,3.40
2022-12-05T19:46:58.157Z,3.41
2022-12-05T19:49:25.984Z,3.42
2022-12-05T19:51:53.799Z,3.41
2022-12-05T19:54:24.110Z,3.39
2022-12-05T19:56:52.848Z,3.35
2022-12-05T19:59:21.332Z,3.30
2022-12-05T20:01:50.119Z,3.25
2022-12-05T20:04:18.059Z,3.24
2022-12-05T20:06:48.046Z,3.23
2022-12-05T20:09:18.836Z,3.23
2022-12-05T20:11:54.606Z,3.22
2022-12-05T20:14:25.989Z,3.22
2022-12-05T20:16:54.336Z,3.21
2022-12-05T20:19:23.577Z,3.21
2022-12-05T20:21:51.659Z,3.22
2022-12-05T20:24:19.499Z,3.21
2022-12-05T20:26:47.591Z,3.20
2022-12-05T20:29:15.463Z,3.20
2022-12-05T20:31:43.584Z,3.20
2022-12-05T20:34:13.907Z,3.21
2022-12-05T20:36:43.910Z,3.19
2022-12-05T20:39:16.757Z,3.18
2022-12-05T20:41:45.039Z,3.16
2022-12-05T20:44:16.602Z,3.14
2022-12-05T20:46:45.461Z,3.09
2022-12-05T20:49:13.993Z,3.05
2022-12-05T20:51:44.174Z,3.00
2022-12-05T20:54:14.123Z,2.95
2022-12-05T20:56:42.580Z,2.92
2022-12-05T20:59:12.458Z,2.89
2022-12-05T21:01:40.601Z,2.84
2022-12-05T21:04:09.601Z,2.81
2022-12-05T21:06:40.626Z,2.77
2022-12-05T21:09:26.881Z,2.73
2022-12-05T21:11:56.021Z,2.69
2022-12-05T21:14:24.768Z,2.64
2022-12-05T21:16:53.276Z,2.61
2022-12-05T21:19:21.667Z,2.56
2022-12-05T21:21:49.431Z,2.52
2022-12-05T21:24:17.358Z,2.46
2022-12-05T21:26:46.907Z,2.42
2022-12-05T21:29:14.760Z,2.37
2022-12-05T21:31:44.223Z,2.33
2022-12-05T21:34:17.731Z,2.28
2022-12-05T21:36:46.006Z,2.23
2022-12-05T21:39:15.854Z,2.19
2022-12-05T21:41:43.787Z,2.15
2022-12-05T21:44:11.608Z,2.12
2022-12-05T21:46:39.559Z,2.08
2022-12-05T21:49:07.671Z,2.04
2022-12-05T21:51:35.558Z,2.00
2022-12-05T21:54:03.677Z,1.96
2022-12-05T21:56:32.419Z,1.93
2022-12-05T21:59:00.207Z,1.89
2022-12-05T22:01:28.687Z,1.88
2022-12-05T22:04:01.328Z,1.86
2022-12-05T22:06:34.009Z,1.85
2022-12-05T22:09:02.742Z,1.81
2022-12-05T22:11:30.916Z,1.78
2022-12-05T22:13:59.259Z,1.76
2022-12-05T22:16:32.865Z,1.75
2022-12-05T22:19:03.177Z,1.73
2022-12-05T22:21:34.381Z,1.71
2022-12-05T22:24:02.605Z,1.69
2022-12-05T22:26:30.569Z,1.69
2022-12-05T22:28:58.561Z,1.68
2022-12-05T22:31:26.533Z,1.68
2022-12-05T22:33:54.983Z,1.68
2022-12-05T22:36:24.492Z,1.67
2022-12-05T22:38:52.698Z,1.66
2022-12-05T22:41:23.317Z,1.67
2022-12-05T22:43:56.644Z,1.67
2022-12-05T22:46:27.084Z,1.68
2022-12-05T22:48:55.959Z,1.69
2022-12-05T22:51:24.314Z,1.69
2022-12-05T22:53:53.210Z,1.71
2022-12-05T22:56:23.905Z,1.72
2022-12-05T22:58:57.061Z,1.72
2022-12-05T23:01:30.643Z,1.74
2022-12-05T23:04:11.937Z,1.74
2022-12-05T23:06:40.354Z,1.75
2022-12-05T23:09:10.781Z,1.76
2022-12-05T23:11:39.892Z,1.77
2022-12-05T23:14:08.425Z,1.78
2022-12-05T23:16:36.867Z,1.80
2022-12-05T23:19:06.057Z,1.82
2022-12-05T23:21:36.950Z,1.83
2022-12-05T23:24:11.292Z,1.83
2022-12-05T23:26:45.148Z,1.83
2022-12-05T23:29:15.015Z,1.84
2022-12-05T23:31:44.311Z,1.85
2022-12-05T23:34:12.684Z,1.86
2022-12-05T23:36:40.964Z,1.86
2022-12-05T23:39:09.337Z,1.87
2022-12-05T23:41:37.140Z,1.89
2022-12-05T23:44:05.025Z,1.91
2022-12-05T23:46:32.939Z,1.92
2022-12-05T23:49:01.525Z,1.92
2022-12-05T23:51:31.643Z,1.92
2022-12-05T23:54:02.479Z,1.92
2022-12-05T23:56:32.737Z,1.92
2022-12-05T23:59:02.915Z,1.92
